• Back
  •  
  • Position of Reservoir Gates
S.No.
No. of opened gates
Position of opening (In m)
Reporting Date
Reporting Time
Discharge in Cumecs
Discharge in Cusecs
Actual date and time of Gate opening
1
2
3
4
5
6
7
8
1 4 10/08/2012 9:33:39 AM 94.42
2 4 10/08/2012 9:33:39 AM 94.42
3 5 11/08/2012 11:03:16 AM 94.2
4 5 11/08/2012 11:03:16 AM 94.2
5 5 12/08/2012 9:31:30 AM 94.42
6 5 12/08/2012 9:31:30 AM 94.42
7 5 13/08/2012 9:29:50 AM 86.8
8 5 14/08/2012 9:13:05 AM 21.7
9 5 15/08/2012 8:59:20 AM 21.7
10 0 16/08/2012 9:10:48 AM 0
11 3 23/08/2012 10:14:51 AM 103.5
12 0 25/08/2012 8:13:31 AM 0
13 4 26/08/2012 7:42:30 AM 69.4
14 4 27/08/2012 7:35:02 AM 132
15 8 28/08/2012 7:27:09 AM 468
16 8 28/08/2012 7:31:50 AM 468
17 8 29/08/2012 7:26:38 AM 468
18 5 30/08/2012 7:27:26 AM 265
19 5 30/08/2012 7:33:59 AM 265
20 5 30/08/2012 7:33:59 AM 265
21 6 31/08/2012 7:27:40 AM 265
22 6 31/08/2012 7:31:59 AM 265
23 8 01/09/2012 7:38:53 AM 265
24 6 02/09/2012 7:26:53 AM 46
25 6 02/09/2012 7:31:37 AM 46
26 0 03/09/2012 7:47:10 AM 0
27 1 13/09/2012 7:35:15 AM 17.35
28 0 14/09/2012 7:35:55 AM 0
29 2 01/08/2013 11:31:49 AM 42.17
30 0 02/08/2013 7:46:49 AM 0
31 1 20/08/2013 1:44:40 PM 33.49
32 0 26/08/2013 11:53:37 AM 0
33 4 30/08/2013 9:58:45 PM 320.57
34 0 31/08/2013 7:58:45 AM 0
35 0 31/08/2013 8:16:45 AM 0
36 3 01/09/2013 9:43:45 AM 58.49
37 0 02/09/2013 3:46:45 PM 0
38 1 04/08/2016 11:08:27 AM 0
39 1 20/08/2016 11:59:58 AM 17.51
Powered by © Water Resources Department (MP). All Rights Reserved.